Time;durP1;ratioP1;P1;durP2;ratioP2;P2;SDS_P1;SDS_P2;PMS_P1;PMS_P2;Temp;Humidity;BMP_temperature;BMP_pressure;BME280_temperature;BME280_humidity;BME280_pressure;Samples;Min_cycle;Max_cycle;Signal;HPM_P1;HPM_P2
2021/12/12 00:00:14;;;;;;;17.64;6.38;;;-2.60;99.90;;;-3.24;100.00;97866.38;173851;28;1499;-78
2021/12/12 00:00:49;;;;;;;14.55;6.24;;;-2.60;99.90;;;-3.16;100.00;97874.69;172397;28;1454;-79
2021/12/12 00:01:16;;;;;;;15.91;6.59;;;-2.60;99.90;;;-3.13;100.00;97871.84;171914;28;1206;-78
2021/12/12 00:01:49;;;;;;;13.88;6.46;;;-2.50;99.90;;;-3.18;100.00;97863.38;173864;28;1369;-78
2021/12/12 00:02:05;;;;;;;23.75;7.31;;;-2.60;99.90;;;-3.20;100.00;97857.34;173916;28;1434;-78
2021/12/12 00:02:26;;;;;;;38.29;7.78;;;-2.50;99.90;;;-3.32;100.00;97852.84;174679;28;1262;-78
2021/12/12 00:02:49;;;;;;;30.61;6.93;;;-2.50;99.90;;;-3.39;100.00;97831.31;173149;28;1372;-79
2021/12/12 00:03:02;;;;;;;14.05;6.19;;;-2.60;99.90;;;-3.15;100.00;97871.09;172507;28;1353;-79
2021/12/12 00:03:31;;;;;;;11.79;6.29;;;-2.50;99.90;;;-3.20;100.00;97863.47;173184;28;1453;-78
2021/12/12 00:03:48;;;;;;;12.90;6.55;;;-2.50;99.90;;;-3.12;100.00;97873.53;174497;28;1545;-79
2021/12/12 00:04:10;;;;;;;13.93;6.71;;;-2.50;99.90;;;-3.14;100.00;97872.78;174520;28;1385;-78
2021/12/12 00:04:22;;;;;;;18.84;6.79;;;-2.50;99.90;;;-3.19;100.00;97861.69;173790;28;1391;-78
2021/12/12 00:04:33;;;;;;;23.98;7.24;;;-2.50;99.90;;;-3.13;100.00;97882.38;175367;28;1249;-78
2021/12/12 00:04:44;;;;;;;22.11;7.39;;;-2.50;99.90;;;-3.06;100.00;97889.78;173832;28;1719;-78
2021/12/12 00:04:52;;;;;;;19.33;7.29;;;-2.50;99.90;;;-3.15;100.00;97874.56;173158;28;1455;-78
2021/12/12 00:05:08;;;;;;;17.07;7.35;;;-2.50;99.90;;;-3.12;100.00;97878.81;174560;28;1558;-79
2021/12/12 00:05:20;;;;;;;14.89;7.00;;;-2.50;99.90;;;-3.14;100.00;97878.03;173894;28;1429;-78
2021/12/12 00:05:44;;;;;;;17.44;6.82;;;-2.50;99.90;;;-3.11;100.00;97877.88;173200;28;1448;-78
2021/12/12 00:05:56;;;;;;;18.91;6.97;;;-2.50;99.90;;;-3.21;100.00;97864.41;175150;28;1457;-77
2021/12/12 00:06:15;;;;;;;19.46;6.74;;;-2.50;99.90;;;-3.06;100.00;97888.97;174625;28;1351;-79
2021/12/12 00:06:34;;;;;;;17.75;6.71;;;-2.50;99.90;;;-3.32;100.00;97852.84;173359;28;1265;-79
2021/12/12 00:06:56;;;;;;;18.11;6.70;;;-2.50;99.90;;;-3.22;100.00;97870.63;173263;28;1235;-79
2021/12/12 00:07:11;;;;;;;19.90;6.97;;;-2.60;99.90;;;-3.34;100.00;97854.72;173300;28;1243;-78
2021/12/12 00:07:30;;;;;;;31.60;7.07;;;-2.60;99.90;;;-3.23;100.00;97886.50;173189;28;1448;-78
2021/12/12 00:07:37;;;;;;;26.34;6.50;;;-2.60;99.90;;;-3.24;100.00;97883.03;174573;28;1350;-78
2021/12/12 00:07:44;;;;;;;14.28;5.70;;;-2.60;99.90;;;-3.28;100.00;97886.78;173313;28;990;-78
2021/12/12 00:07:50;;;;;;;14.96;5.84;;;-2.60;99.90;;;-3.43;100.00;97866.66;172610;28;1080;-80
2021/12/12 00:07:57;;;;;;;15.20;5.97;;;-2.70;99.90;;;-3.26;100.00;97882.25;173175;28;1212;-79
2021/12/12 00:08:05;;;;;;;15.72;5.96;;;-2.70;99.90;;;-3.30;100.00;97885.19;173885;28;1600;-79
2021/12/12 00:08:17;;;;;;;17.35;6.13;;;-2.70;99.90;;;-3.25;100.00;97891.00;172476;28;1305;-79
2021/12/12 00:08:25;;;;;;;20.58;6.34;;;-2.70;99.90;;;-3.36;100.00;97859.22;172473;28;2743;-78
2021/12/12 00:08:32;;;;;;;21.83;6.44;;;-2.70;99.90;;;-3.42;100.00;97856.00;173112;28;1393;-78
2021/12/12 00:08:44;;;;;;;22.98;6.78;;;-2.70;99.90;;;-3.24;100.00;97888.28;172492;28;1414;-78
2021/12/12 00:08:58;;;;;;;25.00;7.02;;;-2.70;99.90;;;-3.44;100.00;97857.06;172567;28;1376;-78
2021/12/12 00:09:24;;;;;;;23.91;7.26;;;-2.70;99.90;;;-3.36;100.00;97878.50;173300;28;1246;-78
2021/12/12 00:09:50;;;;;;;16.45;6.25;;;-2.70;99.90;;;-3.37;100.00;97879.44;173946;28;1373;-78
2021/12/12 00:10:05;;;;;;;14.15;5.51;;;-2.80;99.90;;;-3.31;100.00;97889.59;173965;28;1284;-78
2021/12/12 00:10:21;;;;;;;14.13;5.46;;;-2.80;99.90;;;-3.37;100.00;97881.22;173226;28;1382;-78
2021/12/12 00:10:33;;;;;;;12.15;5.68;;;-2.70;99.90;;;-3.42;100.00;97867.50;173158;28;1234;-78
2021/12/12 00:10:45;;;;;;;10.61;5.55;;;-2.80;99.90;;;-3.36;100.00;97883.75;173122;28;1314;-78
2021/12/12 00:11:01;;;;;;;10.66;5.85;;;-2.80;99.90;;;-3.32;100.00;97881.81;173284;28;1232;-78
2021/12/12 00:11:15;;;;;;;12.71;6.55;;;-2.70;99.90;;;-3.30;100.00;97886.03;173453;28;1506;-78
2021/12/12 00:11:30;;;;;;;14.39;6.70;;;-2.70;99.90;;;-3.32;100.00;97876.53;173210;28;1256;-78
2021/12/12 00:11:37;;;;;;;16.38;6.29;;;-2.70;99.90;;;-3.53;100.00;97840.06;174564;28;1576;-78
2021/12/12 00:11:44;;;;;;;17.30;6.10;;;-2.70;99.90;;;-3.32;100.00;97884.44;173892;28;1511;-78
2021/12/12 00:11:52;;;;;;;20.97;6.80;;;-2.70;99.90;;;-3.29;100.00;97887.72;172563;28;1390;-78
2021/12/12 00:12:06;;;;;;;21.27;7.39;;;-2.70;99.90;;;-3.53;100.00;97847.94;174633;28;1174;-78
2021/12/12 00:12:28;;;;;;;20.96;7.59;;;-2.70;99.90;;;-3.29;100.00;97889.50;174566;28;1358;-78
2021/12/12 00:12:48;;;;;;;19.70;6.81;;;-2.70;99.90;;;-3.34;100.00;97879.25;174672;28;1234;-78
2021/12/12 00:13:08;;;;;;;20.64;6.32;;;-2.70;99.90;;;-3.40;100.00;97862.97;174600;28;1349;-78
2021/12/12 00:13:22;;;;;;;13.46;6.15;;;-2.70;99.90;;;-3.37;100.00;97873.34;173295;28;1261;-78
2021/12/12 00:13:46;;;;;;;14.94;6.72;;;-2.70;99.90;;;-3.42;100.00;97858.66;173177;28;2650;-79
2021/12/12 00:14:25;;;;;;;17.02;6.72;;;-2.70;99.90;;;-3.23;100.00;97887.34;173153;28;1521;-78
2021/12/12 00:14:34;;;;;;;17.52;6.70;;;-2.70;99.90;;;-3.26;100.00;97878.78;172500;28;2849;-78
2021/12/12 00:14:40;;;;;;;17.36;6.79;;;-2.70;99.90;;;-3.34;100.00;97865.25;172572;28;1545;-78
2021/12/12 00:14:47;;;;;;;16.15;6.90;;;-2.70;99.90;;;-3.22;100.00;97880.31;173235;28;891;-78
2021/12/12 00:14:55;;;;;;;14.57;7.03;;;-2.70;99.90;;;-3.24;100.00;97883.03;172626;28;1329;-78
2021/12/12 00:15:07;;;;;;;12.77;6.84;;;-2.70;99.90;;;-3.27;100.00;97879.75;173160;28;1386;-78
2021/12/12 00:15:17;;;;;;;13.98;6.64;;;-2.70;99.90;;;-3.20;100.00;97887.16;173163;28;1544;-78
2021/12/12 00:15:25;;;;;;;15.83;6.86;;;-2.70;99.90;;;-3.24;100.00;97879.53;173167;28;1469;-78
2021/12/12 00:15:31;;;;;;;17.40;7.05;;;-2.70;99.90;;;-3.33;100.00;97866.94;173161;28;1417;-78
2021/12/12 00:15:38;;;;;;;19.14;6.98;;;-2.70;99.90;;;-3.28;100.00;97878.91;171756;28;1500;-78
2021/12/12 00:15:45;;;;;;;18.20;6.72;;;-2.70;99.90;;;-3.28;100.00;97886.78;173042;28;1970;-78
2021/12/12 00:15:51;;;;;;;18.03;6.50;;;-2.70;99.90;;;-3.22;100.00;97883.78;172602;28;1280;-78
2021/12/12 00:15:57;;;;;;;16.85;6.18;;;-2.70;99.90;;;-3.29;100.00;97889.50;172518;28;1408;-78
2021/12/12 00:16:04;;;;;;;17.45;6.13;;;-2.70;99.90;;;-3.30;100.00;97877.28;174032;28;943;-78
2021/12/12 00:16:10;;;;;;;16.97;6.17;;;-2.70;99.90;;;-3.30;100.00;97887.81;173981;28;1432;-78
2021/12/12 00:16:16;;;;;;;16.90;6.30;;;-2.70;99.90;;;-3.39;100.00;97872.56;173239;28;846;-78
2021/12/12 00:16:23;;;;;;;15.95;6.15;;;-2.70;99.90;;;-3.33;100.00;97882.75;174563;28;1344;-78
2021/12/12 00:16:29;;;;;;;16.13;6.30;;;-2.70;99.90;;;-3.28;100.00;97896.47;174595;28;1293;-78
2021/12/12 00:16:37;;;;;;;14.98;5.94;;;-2.70;99.90;;;-3.38;100.00;97879.53;174602;28;1443;-78
2021/12/12 00:16:45;;;;;;;20.33;6.40;;;-2.70;99.90;;;-3.48;100.00;97869.56;172518;28;1378;-78
2021/12/12 00:16:54;;;;;;;29.57;7.00;;;-2.70;99.90;;;-3.50;100.00;97870.56;173141;28;1428;-78
2021/12/12 00:17:01;;;;;;;30.73;7.00;;;-2.70;99.90;;;-3.39;100.00;97883.09;173893;28;1304;-78
2021/12/12 00:17:10;;;;;;;31.66;7.16;;;-2.80;99.90;;;-3.37;100.00;97889.97;174547;28;1412;-78
2021/12/12 00:17:16;;;;;;;21.57;6.90;;;-2.70;99.90;;;-3.46;100.00;97878.19;174542;28;1512;-78
2021/12/12 00:17:26;;;;;;;22.53;7.63;;;-2.80;99.90;;;-3.47;100.00;97876.50;174506;28;1456;-78
2021/12/12 00:17:32;;;;;;;23.58;8.01;;;-2.80;99.90;;;-3.61;100.00;97849.31;173105;28;1505;-78
2021/12/12 00:17:39;;;;;;;21.33;7.83;;;-2.80;99.90;;;-3.33;100.00;97906.44;174032;28;962;-78
2021/12/12 00:17:47;;;;;;;18.62;7.06;;;-2.80;99.90;;;-3.42;100.00;97884.16;174510;28;1337;-78
2021/12/12 00:17:55;;;;;;;17.00;6.43;;;-2.80;99.90;;;-3.33;100.00;97898.53;172504;28;1365;-78
2021/12/12 00:18:01;;;;;;;14.23;6.03;;;-2.80;99.90;;;-3.46;100.00;97878.19;172531;28;1364;-78
2021/12/12 00:18:08;;;;;;;15.10;6.06;;;-2.80;99.90;;;-3.44;100.00;97880.75;172436;28;1656;-78
2021/12/12 00:18:14;;;;;;;15.48;6.25;;;-2.80;99.90;;;-3.51;100.00;97863.63;173649;28;1252;-78
2021/12/12 00:18:22;;;;;;;14.12;6.16;;;-2.80;99.90;;;-3.42;100.00;97879.69;173824;28;1314;-78
2021/12/12 00:18:28;;;;;;;15.60;6.27;;;-2.80;99.90;;;-3.37;100.00;97892.63;173149;28;1291;-78
2021/12/12 00:18:36;;;;;;;15.40;6.10;;;-2.80;99.90;;;-3.38;100.00;97890.91;172567;28;1345;-78
2021/12/12 00:18:42;;;;;;;15.60;5.90;;;-2.80;99.90;;;-3.29;100.00;97900.03;173263;28;1026;-78
2021/12/12 00:18:49;;;;;;;16.95;6.30;;;-2.80;99.90;;;-3.31;100.00;97894.84;173840;28;1430;-78
2021/12/12 00:18:56;;;;;;;17.96;6.98;;;-2.80;99.90;;;-3.33;100.00;97888.00;173882;28;1425;-78
2021/12/12 00:19:04;;;;;;;17.84;7.38;;;-2.80;99.90;;;-3.35;100.00;97887.22;173213;28;1394;-78
2021/12/12 00:19:11;;;;;;;17.70;7.73;;;-2.80;99.90;;;-3.41;100.00;97880.56;172839;28;1397;-78
2021/12/12 00:19:19;;;;;;;17.67;7.43;;;-2.80;99.90;;;-3.42;100.00;97874.44;173260;28;1267;-78
2021/12/12 00:19:28;;;;;;;15.97;6.52;;;-2.80;99.90;;;-3.35;100.00;97888.09;173843;28;1612;-78
2021/12/12 00:19:35;;;;;;;15.49;6.19;;;-2.70;99.90;;;-3.28;100.00;97896.47;173891;28;1385;-78
2021/12/12 00:19:42;;;;;;;15.97;6.20;;;-2.70;99.90;;;-3.29;100.00;97893.00;174483;28;1471;-78
2021/12/12 00:19:48;;;;;;;16.50;6.13;;;-2.70;99.90;;;-3.30;100.00;97882.53;173177;28;1521;-78
2021/12/12 00:19:55;;;;;;;16.73;5.83;;;-2.70;99.90;;;-3.34;100.00;97881.03;173925;28;1271;-78
2021/12/12 00:20:03;;;;;;;17.73;6.13;;;-2.70;99.90;;;-3.24;100.00;97896.19;173255;28;1231;-78
2021/12/12 00:20:15;;;;;;;16.30;6.27;;;-2.70;99.90;;;-3.18;100.00;97900.25;173929;28;1350;-78
2021/12/12 00:20:27;;;;;;;14.85;6.05;;;-2.70;99.90;;;-3.20;100.00;97904.75;174533;28;1505;-78
2021/12/12 00:20:34;;;;;;;13.09;6.14;;;-2.70;99.90;;;-3.27;100.00;97888.50;173895;28;1359;-78
2021/12/12 00:20:41;;;;;;;13.48;6.12;;;-2.70;99.90;;;-3.20;100.00;97892.44;172522;28;1334;-78
2021/12/12 00:20:53;;;;;;;14.20;6.30;;;-2.70;99.90;;;-3.17;100.00;97896.69;173190;28;1293;-78
2021/12/12 00:20:59;;;;;;;16.49;6.71;;;-2.70;99.90;;;-3.19;100.00;97895.91;173080;28;1414;-78
2021/12/12 00:21:09;;;;;;;17.03;6.80;;;-2.70;99.90;;;-3.57;100.00;97838.50;173255;28;1278;-78
2021/12/12 00:21:22;;;;;;;16.49;6.93;;;-2.70;99.90;;;-3.35;100.00;97881.97;174435;28;1419;-78
2021/12/12 00:21:31;;;;;;;15.82;6.69;;;-2.70;99.90;;;-3.28;100.00;97885.94;173896;28;1433;-78
2021/12/12 00:21:44;;;;;;;19.63;6.03;;;-2.70;99.90;;;-3.28;100.00;97891.22;173309;28;1058;-78
2021/12/12 00:21:58;;;;;;;21.10;5.78;;;-2.70;99.90;;;-3.26;100.00;97898.06;173209;28;1448;-79
2021/12/12 00:22:18;;;;;;;19.59;6.04;;;-2.70;99.90;;;-3.31;100.00;97888.75;174599;28;1233;-79
2021/12/12 00:22:29;;;;;;;22.45;7.00;;;-2.70;99.90;;;-3.35;100.00;97888.09;173979;28;1232;-78
2021/12/12 00:22:36;;;;;;;24.77;7.11;;;-2.70;99.90;;;-3.34;100.00;97895.03;174570;28;1528;-78
2021/12/12 00:22:42;;;;;;;21.90;6.23;;;-2.70;99.90;;;-3.30;100.00;97900.97;174644;28;1422;-78
2021/12/12 00:22:49;;;;;;;21.48;6.13;;;-2.70;99.90;;;-3.44;100.00;97878.97;174654;28;1174;-78
2021/12/12 00:22:59;;;;;;;22.00;6.20;;;-2.70;99.90;;;-3.37;100.00;97891.75;173293;28;903;-78
2021/12/12 00:23:07;;;;;;;19.10;6.43;;;-2.70;99.90;;;-3.35;100.00;97895.13;172671;28;891;-78
2021/12/12 00:23:14;;;;;;;17.93;6.62;;;-2.70;99.90;;;-3.43;100.00;97877.19;173186;28;1072;-78
2021/12/12 00:23:21;;;;;;;17.85;7.10;;;-2.70;99.90;;;-3.30;100.00;97900.97;173213;28;1413;-78
2021/12/12 00:23:27;;;;;;;15.68;7.08;;;-2.70;99.90;;;-3.36;100.00;97890.78;173806;28;1403;-78
2021/12/12 00:23:33;;;;;;;15.20;6.88;;;-2.70;99.90;;;-3.31;100.00;97894.00;174645;28;937;-78
2021/12/12 00:23:40;;;;;;;12.98;6.80;;;-2.70;99.90;;;-3.29;100.00;97894.78;172511;28;1329;-78
2021/12/12 00:23:46;;;;;;;11.20;6.47;;;-2.70;99.90;;;-3.49;100.00;97867.88;173463;28;1613;-78
2021/12/12 00:23:54;;;;;;;11.05;5.95;;;-2.70;99.90;;;-3.39;100.00;97875.19;173880;28;1393;-78
2021/12/12 00:24:04;;;;;;;15.44;6.04;;;-2.70;99.90;;;-3.37;100.00;97881.22;173170;28;1303;-78
2021/12/12 00:24:13;;;;;;;18.57;6.09;;;-2.70;99.90;;;-3.33;100.00;97890.63;173596;28;1508;-79
2021/12/12 00:24:19;;;;;;;30.01;6.87;;;-2.70;99.90;;;-3.38;100.00;97887.44;173174;28;1359;-78
2021/12/12 00:24:26;;;;;;;34.83;7.27;;;-2.70;99.90;;;-3.42;100.00;97879.69;173787;28;1430;-78
2021/12/12 00:24:32;;;;;;;33.07;7.60;;;-2.70;99.90;;;-3.33;100.00;97899.38;174592;28;1291;-78
2021/12/12 00:24:39;;;;;;;35.53;8.10;;;-2.70;99.90;;;-3.33;100.00;97898.53;173999;28;859;-78
2021/12/12 00:24:46;;;;;;;27.17;7.83;;;-2.70;99.90;;;-3.34;100.00;97897.69;173223;28;1485;-78
2021/12/12 00:24:56;;;;;;;22.23;7.60;;;-2.70;99.90;;;-3.40;100.00;97889.28;173138;28;1469;-78
2021/12/12 00:25:04;;;;;;;19.74;7.47;;;-2.70;99.90;;;-3.28;100.00;97907.84;172528;28;1277;-78
2021/12/12 00:25:11;;;;;;;14.40;7.00;;;-2.70;99.90;;;-3.32;100.00;97910.75;174007;28;1099;-78
2021/12/12 00:25:19;;;;;;;14.57;7.17;;;-2.70;99.90;;;-3.35;100.00;97898.63;174708;28;1113;-77
2021/12/12 00:25:33;;;;;;;15.50;6.97;;;-2.70;99.90;;;-3.42;100.00;97890.22;174765;28;977;-77
2021/12/12 00:25:49;;;;;;;19.38;6.96;;;-2.70;99.90;;;-3.34;100.00;97900.31;173230;28;1250;-78
2021/12/12 00:25:58;;;;;;;19.74;6.97;;;-2.70;99.90;;;-3.41;100.00;97888.44;172556;28;1732;-78
2021/12/12 00:26:05;;;;;;;17.04;7.80;;;-2.70;99.90;;;-3.27;100.00;97906.06;172544;28;1474;-78
2021/12/12 00:26:12;;;;;;;17.78;7.85;;;-2.70;99.90;;;-3.33;100.00;97885.38;174428;28;1463;-78
2021/12/12 00:26:18;;;;;;;16.90;7.57;;;-2.70;99.90;;;-3.76;100.00;97822.13;173912;28;910;-78
2021/12/12 00:26:24;;;;;;;15.97;7.13;;;-2.70;99.90;;;-3.42;100.00;97870.13;173164;28;1260;-78
2021/12/12 00:26:31;;;;;;;15.13;6.67;;;-2.70;99.90;;;-3.25;100.00;97897.13;173243;28;1356;-78
2021/12/12 00:26:38;;;;;;;15.55;6.50;;;-2.70;99.90;;;-3.28;100.00;97899.09;173854;28;1502;-79
2021/12/12 00:26:49;;;;;;;14.57;6.30;;;-2.70;99.90;;;-3.42;100.00;97871.81;173303;28;1302;-78
2021/12/12 00:26:57;;;;;;;15.05;6.30;;;-2.70;99.90;;;-3.56;100.00;97856.00;173215;28;1235;-78
2021/12/12 00:27:04;;;;;;;15.50;6.60;;;-2.70;99.90;;;-3.49;100.00;97861.75;173994;28;1165;-78
2021/12/12 00:27:10;;;;;;;15.20;6.77;;;-2.70;99.90;;;-3.48;100.00;97866.94;174630;28;1286;-78
2021/12/12 00:27:16;;;;;;;17.17;7.37;;;-2.70;99.90;;;-3.32;100.00;97889.69;173923;28;1234;-78
2021/12/12 00:27:23;;;;;;;15.57;7.80;;;-2.70;99.90;;;-3.37;100.00;97871.56;173962;28;1322;-78
2021/12/12 00:27:29;;;;;;;14.60;7.74;;;-2.70;99.90;;;-3.40;100.00;97871.72;173815;28;1346;-78
2021/12/12 00:27:35;;;;;;;15.63;7.63;;;-2.70;99.90;;;-3.27;100.00;97903.44;174063;28;883;-78
2021/12/12 00:27:42;;;;;;;14.95;7.25;;;-2.70;99.90;;;-3.35;100.00;97885.44;173872;28;1509;-78
2021/12/12 00:27:48;;;;;;;13.33;6.43;;;-2.70;99.90;;;-3.29;100.00;97892.13;173325;28;883;-78
2021/12/12 00:27:54;;;;;;;14.26;5.96;;;-2.70;99.90;;;-3.40;100.00;97882.25;173323;28;1068;-78
2021/12/12 00:28:01;;;;;;;15.45;5.63;;;-2.70;99.90;;;-3.28;100.00;97902.59;173859;28;1420;-78
2021/12/12 00:28:09;;;;;;;12.77;5.77;;;-2.70;99.90;;;-3.28;100.00;97893.84;173216;28;1404;-78
2021/12/12 00:28:19;;;;;;;14.58;5.92;;;-2.70;99.90;;;-3.29;100.00;97900.03;173891;28;1465;-78
2021/12/12 00:28:28;;;;;;;35.08;6.53;;;-2.70;99.90;;;-3.29;100.00;97900.03;173194;28;1269;-78
2021/12/12 00:28:36;;;;;;;34.80;6.37;;;-2.70;99.90;;;-3.26;100.00;97905.09;172575;28;1271;-78
2021/12/12 00:28:42;;;;;;;35.90;6.43;;;-2.70;99.90;;;-3.33;100.00;97893.25;171792;28;1520;-78
2021/12/12 00:28:49;;;;;;;25.42;6.43;;;-2.70;99.90;;;-3.23;100.00;97904.94;173156;28;1419;-78
2021/12/12 00:28:55;;;;;;;14.52;6.32;;;-2.70;99.90;;;-3.25;100.00;97897.13;171968;28;1465;-78
2021/12/12 00:29:12;;;;;;;23.83;7.60;;;-2.70;99.90;;;-3.25;100.00;97896.28;172519;28;1542;-78
2021/12/12 00:29:21;;;;;;;25.80;7.86;;;-2.70;99.90;;;-3.23;100.00;97899.66;173125;28;1359;-78
2021/12/12 00:29:28;;;;;;;24.60;7.90;;;-2.70;99.90;;;-3.37;100.00;97866.28;172481;28;1208;-78
2021/12/12 00:29:36;;;;;;;16.80;7.13;;;-2.70;99.90;;;-3.28;100.00;97889.41;174502;28;1438;-78
2021/12/12 00:29:43;;;;;;;15.63;7.00;;;-2.70;99.90;;;-3.34;100.00;97884.53;173195;28;1345;-78
2021/12/12 00:29:50;;;;;;;16.03;6.57;;;-2.70;99.90;;;-3.32;100.00;97893.19;173193;28;1349;-78
2021/12/12 00:30:02;;;;;;;16.58;6.34;;;-2.70;99.90;;;-3.40;100.00;97886.66;173845;28;1063;-78
2021/12/12 00:30:12;;;;;;;16.27;6.22;;;-2.70;99.90;;;-3.33;100.00;97899.38;173787;28;1517;-78
2021/12/12 00:30:18;;;;;;;26.55;6.61;;;-2.70;99.90;;;-3.41;100.00;97888.44;174491;28;1621;-78
2021/12/12 00:30:25;;;;;;;34.07;6.93;;;-2.70;99.90;;;-3.49;100.00;97881.03;174003;28;871;-78
2021/12/12 00:30:33;;;;;;;34.80;6.90;;;-2.80;99.90;;;-3.54;100.00;97871.69;173368;28;1548;-78
2021/12/12 00:30:39;;;;;;;31.20;6.43;;;-2.80;99.90;;;-3.58;100.00;97863.16;173354;28;855;-78
2021/12/12 00:30:48;;;;;;;24.63;6.23;;;-2.80;99.90;;;-3.54;100.00;97872.56;173951;28;1383;-78
2021/12/12 00:31:07;;;;;;;15.10;5.84;;;-2.80;99.90;;;-3.61;100.00;97873.00;173204;28;1310;-78
2021/12/12 00:31:18;;;;;;;17.26;6.57;;;-2.80;99.90;;;-3.48;100.00;97893.25;172579;28;1243;-78
2021/12/12 00:31:26;;;;;;;20.82;7.32;;;-2.80;99.90;;;-3.54;100.00;97885.72;173304;28;1272;-78
2021/12/12 00:31:32;;;;;;;20.23;6.73;;;-2.80;99.90;;;-3.49;100.00;97891.53;173901;28;1607;-78
2021/12/12 00:31:38;;;;;;;20.20;6.88;;;-2.80;99.90;;;-3.41;100.00;97904.22;172543;28;962;-78
2021/12/12 00:31:48;;;;;;;22.38;6.76;;;-2.80;99.90;;;-3.46;100.00;97893.13;173181;28;1385;-78
2021/12/12 00:31:59;;;;;;;21.50;7.20;;;-2.80;99.90;;;-3.36;100.00;97910.06;172598;28;998;-78
2021/12/12 00:32:15;;;;;;;19.68;7.16;;;-2.80;99.90;;;-3.44;100.00;97892.13;172502;28;2712;-78
2021/12/12 00:32:24;;;;;;;17.08;7.13;;;-2.80;99.90;;;-3.38;100.00;97897.97;172567;28;1383;-78
2021/12/12 00:32:36;;;;;;;16.13;6.84;;;-2.80;99.90;;;-3.39;100.00;97891.84;172552;28;1478;-78
2021/12/12 00:32:42;;;;;;;17.98;6.82;;;-2.80;99.90;;;-3.32;100.00;97895.81;173188;28;1482;-79
2021/12/12 00:32:50;;;;;;;16.10;6.47;;;-2.70;99.90;;;-3.35;100.00;97889.88;173194;28;1390;-78
2021/12/12 00:32:56;;;;;;;17.52;6.60;;;-2.80;99.90;;;-3.56;100.00;97855.16;173968;28;1079;-78
2021/12/12 00:33:04;;;;;;;16.60;6.63;;;-2.70;99.90;;;-3.40;100.00;97881.41;173276;28;1414;-78
2021/12/12 00:33:10;;;;;;;16.76;7.02;;;-2.70;99.90;;;-3.35;100.00;97889.88;172613;28;1187;-78
2021/12/12 00:33:17;;;;;;;16.33;6.93;;;-2.70;99.90;;;-3.32;100.00;97889.69;174171;28;1531;-78
2021/12/12 00:33:25;;;;;;;15.67;6.60;;;-2.70;99.90;;;-3.36;100.00;97886.38;172560;28;1500;-78
2021/12/12 00:33:31;;;;;;;16.67;6.60;;;-2.70;99.90;;;-3.28;100.00;97901.72;172565;28;1460;-78
2021/12/12 00:33:43;;;;;;;16.60;6.10;;;-2.70;99.90;;;-3.35;100.00;97889.88;172549;28;1210;-78
2021/12/12 00:33:55;;;;;;;17.45;5.93;;;-2.70;99.90;;;-3.21;100.00;97913.59;172518;28;1904;-79
2021/12/12 00:34:01;;;;;;;15.59;6.09;;;-2.70;99.90;;;-3.28;100.00;97902.59;172432;28;1387;-78
2021/12/12 00:34:08;;;;;;;22.42;7.44;;;-2.70;99.90;;;-3.22;100.00;97906.63;172477;28;1455;-78
2021/12/12 00:34:15;;;;;;;22.33;7.83;;;-2.70;99.90;;;-3.34;100.00;97881.03;172604;28;1513;-78
2021/12/12 00:34:21;;;;;;;23.60;7.92;;;-2.70;99.90;;;-3.24;100.00;97897.97;173942;28;1359;-78
2021/12/12 00:34:35;;;;;;;32.93;8.07;;;-2.70;99.90;;;-3.28;100.00;97892.06;174522;28;1520;-78
2021/12/12 00:35:00;;;;;;;27.34;7.38;;;-2.70;99.90;;;-3.26;100.00;97891.94;173211;28;1472;-78
2021/12/12 00:35:14;;;;;;;23.77;7.64;;;-2.70;99.90;;;-3.23;100.00;97894.41;174231;28;1532;-78
2021/12/12 00:35:22;;;;;;;20.85;6.99;;;-2.70;99.90;;;-3.26;100.00;97902.47;171775;28;1525;-78
2021/12/12 00:35:28;;;;;;;19.23;6.57;;;-2.70;99.90;;;-3.21;100.00;97909.16;171808;28;1275;-78
2021/12/12 00:35:35;;;;;;;19.00;6.90;;;-2.70;99.90;;;-3.33;100.00;97882.75;172567;28;1231;-78
2021/12/12 00:35:41;;;;;;;18.63;7.00;;;-2.70;99.90;;;-3.29;100.00;97886.88;172659;28;840;-78
2021/12/12 00:35:49;;;;;;;19.24;7.16;;;-2.70;99.90;;;-3.41;100.00;97875.28;171140;28;1467;-78
2021/12/12 00:35:55;;;;;;;17.05;7.27;;;-2.70;99.90;;;-3.33;100.00;97880.97;171847;28;1534;-78
2021/12/12 00:36:02;;;;;;;15.30;7.05;;;-2.70;99.90;;;-3.27;100.00;97906.91;172491;28;1383;-78
2021/12/12 00:36:14;;;;;;;14.77;6.80;;;-2.70;99.90;;;-3.37;100.00;97892.63;173208;28;1649;-78
2021/12/12 00:36:21;;;;;;;16.78;6.86;;;-2.70;99.90;;;-3.33;100.00;97895.91;173886;28;1262;-78
2021/12/12 00:36:28;;;;;;;26.57;7.53;;;-2.70;99.90;;;-3.40;100.00;97886.66;173275;28;1021;-78
2021/12/12 00:36:38;;;;;;;25.65;7.22;;;-2.70;99.90;;;-3.31;100.00;97907.16;173752;28;1360;-78
2021/12/12 00:36:44;;;;;;;25.69;7.20;;;-2.70;99.90;;;-3.46;100.00;97887.88;174681;28;1065;-78
2021/12/12 00:36:50;;;;;;;22.93;7.07;;;-2.70;99.90;;;-3.42;100.00;97884.97;174499;28;1456;-78
2021/12/12 00:36:57;;;;;;;15.23;7.10;;;-2.70;99.90;;;-3.80;100.00;97828.53;173903;28;1221;-78
2021/12/12 00:37:08;;;;;;;16.46;7.26;;;-2.80;99.90;;;-3.49;100.00;97883.66;173968;28;923;-78
2021/12/12 00:37:15;;;;;;;16.64;7.46;;;-2.80;99.90;;;-3.35;100.00;97911.78;173249;28;1121;-78
2021/12/12 00:37:22;;;;;;;17.08;7.57;;;-2.70;99.90;;;-3.53;100.00;97870.78;172533;28;1389;-78
2021/12/12 00:37:29;;;;;;;15.80;6.90;;;-2.80;99.90;;;-3.39;100.00;97899.75;173982;28;894;-78
2021/12/12 00:37:36;;;;;;;14.67;6.85;;;-2.80;99.90;;;-3.50;100.00;97881.09;175140;28;1440;-78
2021/12/12 00:37:44;;;;;;;14.36;6.26;;;-2.80;99.90;;;-3.37;100.00;97903.13;174728;28;889;-78
2021/12/12 00:38:07;;;;;;;15.10;5.80;;;-2.80;99.90;;;-3.36;100.00;97901.31;175994;28;1146;-78
2021/12/12 00:38:31;;;;;;;19.61;6.21;;;-2.80;99.90;;;-3.37;100.00;97903.13;173206;28;1317;-78
2021/12/12 00:38:38;;;;;;;23.04;7.03;;;-2.80;99.90;;;-3.52;100.00;97881.19;172961;28;1584;-78
2021/12/12 00:38:56;;;;;;;17.22;6.36;;;-2.80;99.90;;;-3.38;100.00;97900.59;173898;28;1450;-78
2021/12/12 00:39:17;;;;;;;14.96;6.24;;;-2.80;99.90;;;-3.33;100.00;97898.53;174552;28;1594;-78
2021/12/12 00:39:28;;;;;;;13.34;6.32;;;-2.80;99.90;;;-3.46;100.00;97883.47;174002;28;1236;-78
2021/12/12 00:39:40;;;;;;;12.93;6.17;;;-2.80;99.90;;;-3.34;100.00;97902.94;174354;28;1298;-78
2021/12/12 00:39:56;;;;;;;13.73;6.00;;;-2.80;99.90;;;-3.33;100.00;97901.16;173839;28;1338;-78
2021/12/12 00:40:29;;;;;;;13.98;5.89;;;-2.70;99.90;;;-3.32;100.00;97901.09;174020;28;1220;-78
2021/12/12 00:40:44;;;;;;;15.11;6.35;;;-2.80;99.90;;;-3.34;100.00;97889.78;173229;28;1241;-78
2021/12/12 00:40:56;;;;;;;16.55;6.93;;;-2.70;99.90;;;-3.30;100.00;97898.34;174504;28;1455;-78
2021/12/12 00:41:11;;;;;;;16.25;7.33;;;-2.70;99.90;;;-3.31;100.00;97896.63;174655;28;1415;-78
2021/12/12 00:41:33;;;;;;;14.80;7.00;;;-2.70;99.90;;;-3.38;100.00;97880.38;173708;28;2752;-78
2021/12/12 00:42:07;;;;;;;17.20;6.89;;;-2.70;99.90;;;-3.33;100.00;97888.00;173846;28;2854;-79
2021/12/12 00:42:24;;;;;;;17.52;7.01;;;-2.70;99.90;;;-3.32;100.00;97892.34;175224;28;1351;-78
2021/12/12 00:42:36;;;;;;;15.84;6.64;;;-2.70;99.90;;;-3.34;100.00;97895.03;173074;28;1442;-79
2021/12/12 00:42:42;;;;;;;16.94;6.76;;;-2.70;99.90;;;-3.30;100.00;97903.59;174639;28;1427;-78
2021/12/12 00:42:53;;;;;;;18.83;6.93;;;-2.70;99.90;;;-3.44;100.00;97883.38;173767;28;1319;-78
2021/12/12 00:43:35;;;;;;;16.97;6.79;;;-2.80;99.90;;;-3.32;100.00;97905.50;172367;28;1437;-78
2021/12/12 00:43:48;;;;;;;17.85;6.78;;;-2.70;99.90;;;-3.47;100.00;97892.28;172431;28;1379;-78
2021/12/12 00:43:54;;;;;;;18.06;6.40;;;-2.80;99.90;;;-3.55;100.00;97884.00;172494;28;1318;-78
2021/12/12 00:44:05;;;;;;;33.80;6.70;;;-2.80;99.90;;;-3.44;100.00;97912.31;173833;28;1293;-78
2021/12/12 00:44:14;;;;;;;33.27;6.57;;;-2.80;99.90;;;-3.49;100.00;97904.72;173239;28;1393;-78
2021/12/12 00:44:22;;;;;;;34.91;6.69;;;-2.80;99.90;;;-3.50;100.00;97897.75;173311;28;1056;-78
2021/12/12 00:44:30;;;;;;;17.30;6.17;;;-2.80;99.90;;;-3.54;100.00;97896.25;174494;28;1246;-78
2021/12/12 00:44:43;;;;;;;16.90;6.27;;;-2.80;99.90;;;-3.50;100.00;97895.13;173207;28;1559;-78
2021/12/12 00:45:01;;;;;;;17.95;6.34;;;-2.80;99.90;;;-3.45;100.00;97889.56;174408;28;1532;-78
2021/12/12 00:45:13;;;;;;;15.55;6.28;;;-2.80;99.90;;;-3.40;100.00;97902.44;175069;28;1345;-78
2021/12/12 00:45:20;;;;;;;14.55;6.30;;;-2.80;99.90;;;-3.35;100.00;97913.56;174621;28;1406;-78
2021/12/12 00:45:28;;;;;;;14.20;6.13;;;-2.80;99.90;;;-3.42;100.00;97900.75;174604;28;989;-78